createdAt,value
2019-02-10T00:01:55.274Z,-0.80
2019-02-10T00:04:22.988Z,-0.90
2019-02-10T00:07:00.288Z,-0.70
2019-02-10T00:09:27.848Z,-0.70
2019-02-10T00:11:55.512Z,-0.70
2019-02-10T00:14:23.258Z,-0.80
2019-02-10T00:16:50.941Z,-0.70
2019-02-10T00:19:18.584Z,-0.70
2019-02-10T00:21:46.218Z,-0.60
2019-02-10T00:26:41.399Z,-0.50
2019-02-10T00:29:08.991Z,-0.50
2019-02-10T00:31:36.572Z,-0.40
2019-02-10T00:34:04.162Z,-0.20
2019-02-10T00:36:33.329Z,-0.30
2019-02-10T00:39:01.258Z,-0.20
2019-02-10T00:41:28.904Z,-0.20
2019-02-10T00:43:56.633Z,-0.40
2019-02-10T00:46:24.292Z,-0.40
2019-02-10T00:48:51.868Z,-0.50
2019-02-10T00:51:19.433Z,-0.50
2019-02-10T00:53:47.183Z,-0.20
2019-02-10T00:56:14.816Z,-0.30
2019-02-10T00:58:42.441Z,-0.10
2019-02-10T01:01:10.087Z,-0.20
2019-02-10T01:03:37.736Z,-0.30
2019-02-10T01:06:05.356Z,-0.30
2019-02-10T01:08:33.001Z,-0.20
2019-02-10T01:11:00.698Z,-0.20
2019-02-10T01:13:28.312Z,0.10
2019-02-10T01:15:59.222Z,-0.20
2019-02-10T01:18:26.780Z,-0.30
2019-02-10T01:20:54.506Z,1.40
2019-02-10T01:23:22.106Z,-0.40
2019-02-10T01:25:49.770Z,-0.40
2019-02-10T01:28:17.568Z,-0.50
2019-02-10T01:30:45.095Z,-0.30
2019-02-10T01:33:12.722Z,1.60
2019-02-10T01:35:40.467Z,0.40
2019-02-10T01:38:08.173Z,-0.20
2019-02-10T01:40:35.808Z,0.20
2019-02-10T01:43:03.397Z,-0.10
2019-02-10T01:45:31.033Z,0.90
2019-02-10T01:47:58.642Z,-0.10
2019-02-10T01:50:26.226Z,-0.10
2019-02-10T01:52:53.989Z,0.00
2019-02-10T01:55:21.623Z,0.00
2019-02-10T01:57:49.276Z,0.10
2019-02-10T02:00:17.047Z,0.10
2019-02-10T02:02:44.946Z,0.10
2019-02-10T02:05:12.944Z,0.10
2019-02-10T02:12:45.469Z,0.00
2019-02-10T02:15:13.826Z,0.00
2019-02-10T02:17:41.527Z,0.20
2019-02-10T02:20:09.752Z,0.20
2019-02-10T02:22:37.423Z,0.10
2019-02-10T02:25:08.163Z,0.00
2019-02-10T02:27:35.909Z,0.00
2019-02-10T02:30:05.123Z,-0.10
2019-02-10T02:32:32.833Z,-0.10
2019-02-10T02:35:00.596Z,-0.20
2019-02-10T02:37:28.372Z,-0.30
2019-02-10T02:39:56.050Z,-0.40
2019-02-10T02:42:23.944Z,-0.30
2019-02-10T02:44:51.570Z,-0.30
2019-02-10T02:47:19.266Z,-0.20
2019-02-10T02:49:46.964Z,-0.10
2019-02-10T02:52:14.749Z,-0.20
2019-02-10T02:54:42.334Z,-0.30
2019-02-10T02:57:09.985Z,-0.40
2019-02-10T02:59:37.824Z,-0.40
2019-02-10T03:02:05.467Z,-0.40
2019-02-10T03:04:34.952Z,-0.50
2019-02-10T03:07:02.543Z,-0.50
2019-02-10T03:09:30.286Z,-0.50
2019-02-10T03:14:25.526Z,-0.50
2019-02-10T03:16:53.304Z,1.30
2019-02-10T03:19:20.905Z,-0.40
2019-02-10T03:21:48.600Z,-0.50
2019-02-10T03:24:16.202Z,-0.80
2019-02-10T03:29:11.389Z,-0.50
2019-02-10T03:34:06.584Z,-0.50
2019-02-10T03:36:34.235Z,-0.40
2019-02-10T03:39:02.009Z,-0.40
2019-02-10T03:41:29.614Z,-0.50
2019-02-10T03:43:57.287Z,-0.60
2019-02-10T03:46:24.993Z,-0.60
2019-02-10T03:48:52.739Z,-0.50
2019-02-10T03:51:20.411Z,-0.50
2019-02-10T03:53:47.980Z,-0.60
2019-02-10T03:56:15.593Z,0.40
2019-02-10T04:01:10.805Z,-0.80
2019-02-10T04:03:38.491Z,-0.60
2019-02-10T04:06:06.153Z,-0.50
2019-02-10T04:08:33.801Z,-0.60
2019-02-10T04:11:01.424Z,-0.70
2019-02-10T04:13:29.065Z,-0.60
2019-02-10T04:15:56.651Z,-0.70
2019-02-10T04:18:24.260Z,-0.80
2019-02-10T04:20:52.153Z,-0.80
2019-02-10T04:23:19.933Z,-0.80
2019-02-10T04:28:15.271Z,-0.80
2019-02-10T04:30:42.921Z,-0.70
2019-02-10T04:33:10.565Z,-0.80
2019-02-10T04:35:38.120Z,-0.80
2019-02-10T04:38:05.789Z,-0.90
2019-02-10T04:40:33.498Z,-0.80
2019-02-10T04:43:01.155Z,-0.90
2019-02-10T04:45:28.918Z,-1.00
2019-02-10T04:47:56.599Z,-0.90
2019-02-10T04:50:24.220Z,-0.90
2019-02-10T04:52:51.974Z,-0.90
2019-02-10T04:55:19.556Z,-1.00
2019-02-10T04:57:47.200Z,-0.90
2019-02-10T05:00:14.877Z,-0.90
2019-02-10T05:02:42.559Z,-0.80
2019-02-10T05:05:10.139Z,-0.70
2019-02-10T05:07:37.784Z,-0.60
2019-02-10T05:10:06.150Z,-0.70
2019-02-10T05:12:33.828Z,-0.80
2019-02-10T05:15:01.428Z,-0.60
2019-02-10T05:17:29.080Z,-0.60
2019-02-10T05:19:56.772Z,-0.60
2019-02-10T05:22:24.536Z,-0.50
2019-02-10T05:24:52.156Z,-0.50
2019-02-10T05:27:19.800Z,-0.40
2019-02-10T05:29:47.493Z,-0.40
2019-02-10T05:32:15.306Z,-0.40
2019-02-10T05:34:43.015Z,-0.40
2019-02-10T05:37:10.630Z,-0.30
2019-02-10T05:39:38.385Z,-0.50
2019-02-10T05:42:05.996Z,-0.50
2019-02-10T05:44:33.719Z,-0.50
2019-02-10T05:47:01.463Z,-0.60
2019-02-10T05:49:29.081Z,-0.50
2019-02-10T05:51:56.729Z,-0.80
2019-02-10T05:54:24.396Z,1.00
2019-02-10T05:56:52.164Z,-0.80
2019-02-10T05:59:19.811Z,-0.70
2019-02-10T06:02:40.391Z,-0.70
2019-02-10T06:05:19.232Z,-0.80
2019-02-10T06:13:10.755Z,-0.80
2019-02-10T06:15:38.399Z,-0.70
2019-02-10T06:18:06.016Z,-0.70
2019-02-10T06:20:33.586Z,-0.60
2019-02-10T06:23:01.387Z,-0.70
2019-02-10T06:25:29.053Z,-0.70
2019-02-10T06:27:56.686Z,-0.70
2019-02-10T06:30:24.325Z,-0.50
2019-02-10T06:32:51.940Z,-0.60
2019-02-10T06:35:19.639Z,-0.50
2019-02-10T06:37:47.210Z,-0.40
2019-02-10T06:40:14.824Z,0.40
2019-02-10T06:42:42.622Z,-0.20
2019-02-10T06:45:11.765Z,-0.10
2019-02-10T06:47:39.581Z,-0.10
2019-02-10T06:50:09.896Z,0.00
2019-02-10T06:52:38.010Z,0.10
2019-02-10T06:55:07.420Z,0.10
2019-02-10T06:57:35.095Z,0.30
2019-02-10T07:00:20.544Z,0.20
2019-02-10T07:03:28.848Z,0.30
2019-02-10T07:08:30.382Z,0.40
2019-02-10T07:10:53.458Z,0.50
2019-02-10T07:16:28.564Z,0.50
2019-02-10T07:19:32.287Z,0.60
2019-02-10T07:22:00.888Z,0.70
2019-02-10T07:24:43.829Z,0.90
2019-02-10T07:27:27.474Z,1.10
2019-02-10T07:30:48.982Z,1.30
2019-02-10T07:33:41.191Z,1.30
2019-02-10T07:36:36.622Z,2.80
2019-02-10T07:39:47.635Z,1.70
2019-02-10T07:42:43.864Z,1.70
2019-02-10T07:45:54.544Z,1.80
2019-02-10T07:48:56.487Z,1.90
2019-02-10T07:51:53.539Z,1.80
2019-02-10T07:55:07.183Z,1.80
2019-02-10T07:58:16.448Z,1.80
2019-02-10T08:03:53.540Z,1.80
2019-02-10T08:12:21.956Z,1.70
2019-02-10T08:15:15.750Z,2.00
2019-02-10T08:17:53.597Z,2.30
2019-02-10T08:20:53.129Z,2.40
2019-02-10T08:26:21.341Z,2.40
2019-02-10T08:32:03.883Z,2.60
2019-02-10T08:35:07.962Z,3.10
2019-02-10T08:38:16.040Z,3.00
2019-02-10T08:41:20.719Z,3.10
2019-02-10T08:44:22.477Z,4.10
2019-02-10T08:47:22.835Z,3.40
2019-02-10T08:50:28.215Z,3.30
2019-02-10T08:53:16.308Z,3.40
2019-02-10T08:55:44.221Z,3.90
2019-02-10T08:58:11.824Z,3.90
2019-02-10T09:00:39.699Z,4.20
2019-02-10T09:03:07.419Z,4.40
2019-02-10T09:05:35.086Z,4.90
2019-02-10T09:08:02.657Z,4.90
2019-02-10T09:10:32.828Z,4.60
2019-02-10T09:13:00.499Z,4.60
2019-02-10T09:15:28.166Z,4.90
2019-02-10T09:17:55.798Z,5.10
2019-02-10T09:20:23.679Z,5.00
2019-02-10T09:22:51.368Z,5.10
2019-02-10T09:25:18.980Z,5.00
2019-02-10T09:27:46.687Z,4.90
2019-02-10T09:32:41.829Z,4.70
2019-02-10T09:37:37.032Z,4.80
2019-02-10T09:40:05.077Z,5.20
2019-02-10T09:42:32.772Z,5.30
2019-02-10T09:45:00.342Z,5.60
2019-02-10T09:47:28.120Z,5.60
2019-02-10T09:49:55.811Z,5.50
2019-02-10T09:52:23.534Z,6.10
2019-02-10T09:54:51.146Z,6.30
2019-02-10T09:57:18.860Z,6.40
2019-02-10T09:59:46.613Z,6.30
2019-02-10T10:02:14.420Z,5.90
2019-02-10T10:04:42.048Z,6.70
2019-02-10T10:07:09.686Z,6.70
2019-02-10T10:09:37.298Z,6.50
2019-02-10T10:12:04.928Z,6.20
2019-02-10T10:14:32.577Z,5.70
2019-02-10T10:17:00.169Z,5.60
2019-02-10T10:19:27.846Z,5.60
2019-02-10T10:21:55.625Z,5.30
2019-02-10T10:24:23.271Z,5.20
2019-02-10T10:26:50.852Z,5.10
2019-02-10T10:29:18.431Z,5.20
2019-02-10T10:31:46.153Z,5.30
2019-02-10T10:34:13.919Z,5.20
2019-02-10T10:36:41.569Z,5.50
2019-02-10T10:39:09.204Z,5.40
2019-02-10T10:41:37.020Z,5.40
2019-02-10T10:44:04.605Z,5.50
2019-02-10T10:46:32.234Z,5.50
2019-02-10T10:49:00.005Z,5.40
2019-02-10T10:51:27.573Z,5.80
2019-02-10T10:53:55.245Z,6.10
2019-02-10T10:56:22.925Z,6.40
2019-02-10T10:58:50.526Z,6.70
2019-02-10T11:01:25.119Z,6.70
2019-02-10T11:03:47.934Z,6.70
2019-02-10T11:06:15.523Z,6.80
2019-02-10T11:08:43.468Z,6.80
2019-02-10T11:11:11.394Z,6.90
2019-02-10T11:13:41.170Z,7.30
2019-02-10T11:16:08.631Z,7.70
2019-02-10T11:18:36.344Z,7.70
2019-02-10T11:21:03.938Z,7.90
2019-02-10T11:23:31.534Z,7.80
2019-02-10T11:25:59.138Z,7.70
2019-02-10T11:28:26.940Z,8.10
2019-02-10T11:30:54.582Z,8.10
2019-02-10T11:33:22.232Z,8.10
2019-02-10T11:35:49.790Z,8.30
2019-02-10T11:38:17.652Z,8.20
2019-02-10T11:40:45.219Z,8.50
2019-02-10T11:43:12.829Z,8.60
2019-02-10T11:45:40.487Z,8.50
2019-02-10T11:48:08.143Z,8.70
2019-02-10T11:50:35.739Z,8.90
2019-02-10T11:53:03.452Z,9.00
2019-02-10T11:55:31.177Z,9.10
2019-02-10T11:57:59.247Z,9.30
2019-02-10T12:00:26.947Z,9.50
2019-02-10T12:02:54.547Z,9.80
2019-02-10T12:05:22.723Z,9.90
2019-02-10T12:07:50.485Z,10.00
2019-02-10T12:10:18.093Z,10.10
2019-02-10T12:12:47.588Z,10.00
2019-02-10T12:15:15.357Z,10.20
2019-02-10T12:17:42.964Z,10.40
2019-02-10T12:20:10.793Z,10.50
2019-02-10T12:22:49.981Z,10.50
2019-02-10T12:25:13.603Z,10.40
2019-02-10T12:27:41.323Z,10.20
2019-02-10T12:30:11.864Z,10.10
2019-02-10T12:32:39.620Z,11.80
2019-02-10T12:35:07.638Z,9.90
2019-02-10T12:37:35.357Z,9.80
2019-02-10T12:40:03.387Z,9.70
2019-02-10T12:42:31.256Z,9.70
2019-02-10T12:44:59.186Z,9.50
2019-02-10T12:47:26.932Z,9.40
2019-02-10T12:49:54.699Z,9.40
2019-02-10T12:52:22.396Z,9.50
2019-02-10T12:54:50.092Z,9.70
2019-02-10T12:57:17.824Z,9.80
2019-02-10T12:59:45.473Z,9.70
2019-02-10T13:02:13.529Z,9.60
2019-02-10T13:04:41.269Z,9.70
2019-02-10T13:07:09.207Z,9.60
2019-02-10T13:09:36.851Z,9.70
2019-02-10T13:12:04.662Z,9.60
2019-02-10T13:14:32.287Z,9.50
2019-02-10T13:17:00.036Z,9.40
2019-02-10T13:19:27.695Z,9.40
2019-02-10T13:21:55.421Z,9.50
2019-02-10T13:24:23.037Z,9.00
2019-02-10T13:26:50.763Z,8.90
2019-02-10T13:29:18.624Z,8.80
2019-02-10T13:31:46.395Z,8.70
2019-02-10T13:34:14.175Z,8.70
2019-02-10T13:36:41.975Z,8.40
2019-02-10T13:39:10.230Z,8.50
2019-02-10T13:41:37.310Z,8.70
2019-02-10T13:44:06.029Z,8.60
2019-02-10T13:46:33.622Z,8.50
2019-02-10T13:49:01.369Z,8.60
2019-02-10T13:51:29.157Z,8.50
2019-02-10T13:53:56.897Z,8.60
2019-02-10T13:56:24.672Z,8.60
2019-02-10T13:58:52.285Z,8.60
2019-02-10T14:01:19.964Z,8.50
2019-02-10T14:03:47.695Z,8.30
2019-02-10T14:06:15.504Z,8.30
2019-02-10T14:08:43.178Z,8.20
2019-02-10T14:11:11.107Z,8.60
2019-02-10T14:13:38.809Z,8.60
2019-02-10T14:16:06.561Z,8.40
2019-02-10T14:18:34.254Z,8.40
2019-02-10T14:21:02.611Z,8.80
2019-02-10T14:23:30.480Z,8.90
2019-02-10T14:25:58.289Z,9.00
2019-02-10T14:28:25.973Z,8.90
2019-02-10T14:30:53.766Z,9.10
2019-02-10T14:33:21.827Z,9.30
2019-02-10T14:35:49.514Z,9.30
2019-02-10T14:38:17.219Z,9.40
2019-02-10T14:40:45.119Z,9.60
2019-02-10T14:43:12.758Z,9.50
2019-02-10T14:45:40.441Z,9.60
2019-02-10T14:48:08.157Z,9.60
2019-02-10T14:50:35.871Z,9.50
2019-02-10T14:53:03.916Z,9.40
2019-02-10T14:55:31.634Z,7.70
2019-02-10T15:00:26.887Z,9.40
2019-02-10T15:05:22.890Z,9.20
2019-02-10T15:07:50.694Z,9.20
2019-02-10T15:10:18.800Z,9.30
2019-02-10T15:12:46.639Z,9.30
2019-02-10T15:15:15.631Z,9.30
2019-02-10T15:17:43.226Z,8.50
2019-02-10T15:20:10.888Z,9.40
2019-02-10T15:22:41.046Z,9.40
2019-02-10T15:25:09.250Z,9.50
2019-02-10T15:27:37.554Z,9.30
2019-02-10T15:30:06.497Z,9.20
2019-02-10T15:32:34.274Z,9.10
2019-02-10T15:35:02.310Z,9.10
2019-02-10T15:37:30.089Z,9.10
2019-02-10T15:39:59.741Z,9.00
2019-02-10T15:42:27.348Z,8.90
2019-02-10T15:44:55.125Z,8.90
2019-02-10T15:49:50.567Z,8.80
2019-02-10T15:52:18.433Z,8.80
2019-02-10T15:54:46.135Z,8.70
2019-02-10T15:57:13.787Z,8.50
2019-02-10T15:59:41.593Z,8.50
2019-02-10T16:02:09.253Z,8.40
2019-02-10T16:04:36.944Z,8.30
2019-02-10T16:07:04.586Z,8.30
2019-02-10T16:09:32.296Z,8.20
2019-02-10T16:12:00.104Z,8.00
2019-02-10T16:14:31.123Z,7.80
2019-02-10T16:16:59.419Z,7.50
2019-02-10T16:19:28.019Z,7.40
2019-02-10T16:21:55.907Z,7.40
2019-02-10T16:26:53.199Z,7.40
2019-02-10T16:29:21.386Z,7.30
2019-02-10T16:31:49.229Z,7.30
2019-02-10T16:34:16.901Z,7.30
2019-02-10T16:36:44.696Z,7.30
2019-02-10T16:39:12.908Z,7.50
2019-02-10T16:41:40.720Z,7.50
2019-02-10T16:44:08.354Z,7.60
2019-02-10T16:49:03.763Z,7.90
2019-02-10T16:51:31.539Z,8.00
2019-02-10T16:53:59.217Z,8.00
2019-02-10T16:56:26.878Z,8.10
2019-02-10T16:58:54.707Z,8.10
2019-02-10T17:01:22.299Z,8.20
2019-02-10T17:03:49.929Z,8.10
2019-02-10T17:06:17.747Z,8.00
2019-02-10T17:08:45.377Z,8.00
2019-02-10T17:11:14.390Z,7.80
2019-02-10T17:13:42.397Z,7.70
2019-02-10T17:16:10.224Z,7.70
2019-02-10T17:18:38.026Z,7.60
2019-02-10T17:21:05.872Z,7.50
2019-02-10T17:23:33.573Z,7.30
2019-02-10T17:26:01.453Z,7.20
2019-02-10T17:28:29.208Z,7.10
2019-02-10T17:30:56.882Z,7.10
2019-02-10T17:33:24.468Z,7.00
2019-02-10T17:35:52.195Z,7.10
2019-02-10T17:38:19.831Z,7.40
2019-02-10T17:41:10.433Z,7.60
2019-02-10T17:43:38.145Z,7.50
2019-02-10T17:46:05.779Z,7.70
2019-02-10T17:48:33.617Z,7.80
2019-02-10T17:51:01.483Z,8.00
2019-02-10T17:53:29.187Z,7.90
2019-02-10T17:55:56.836Z,8.10
2019-02-10T17:58:24.499Z,8.10
2019-02-10T18:00:52.175Z,8.10
2019-02-10T18:03:19.891Z,8.00
2019-02-10T18:05:47.717Z,7.90
2019-02-10T18:08:15.439Z,7.70
2019-02-10T18:13:10.894Z,7.50
2019-02-10T18:16:06.878Z,6.90
2019-02-10T18:18:59.801Z,7.50
2019-02-10T18:21:42.634Z,7.70
2019-02-10T18:24:44.709Z,7.20
2019-02-10T18:27:31.991Z,7.00
2019-02-10T18:30:19.223Z,6.80
2019-02-10T18:32:56.278Z,6.90
2019-02-10T18:35:40.711Z,6.90
2019-02-10T18:38:30.675Z,6.80
2019-02-10T18:41:11.564Z,6.70
2019-02-10T18:43:51.100Z,6.60
2019-02-10T18:49:11.775Z,6.50
2019-02-10T18:52:10.598Z,6.40
2019-02-10T18:54:55.791Z,6.40
2019-02-10T18:57:35.845Z,6.40
2019-02-10T19:00:24.315Z,6.40
2019-02-10T19:03:17.318Z,6.50
2019-02-10T19:06:03.013Z,6.50
2019-02-10T19:08:39.117Z,6.50
2019-02-10T19:11:26.438Z,6.40
2019-02-10T19:16:55.484Z,6.40
2019-02-10T19:20:00.709Z,6.40
2019-02-10T19:22:46.098Z,6.40
2019-02-10T19:25:23.212Z,6.60
2019-02-10T19:28:08.615Z,6.70
2019-02-10T19:30:50.930Z,6.80
2019-02-10T19:33:36.462Z,6.80
2019-02-10T19:36:35.744Z,6.80
2019-02-10T19:39:27.524Z,6.50
2019-02-10T19:42:20.238Z,7.00
2019-02-10T19:45:19.832Z,7.10
2019-02-10T19:48:05.768Z,7.10
2019-02-10T19:53:58.682Z,7.10
2019-02-10T19:56:54.609Z,7.20
2019-02-10T19:59:40.204Z,7.10
2019-02-10T20:02:29.255Z,7.20
2019-02-10T20:05:10.564Z,7.00
2019-02-10T20:08:15.624Z,7.00
2019-02-10T20:11:05.314Z,6.90
2019-02-10T20:13:38.483Z,6.90
2019-02-10T20:16:20.446Z,6.90
2019-02-10T20:19:13.610Z,7.00
2019-02-10T20:22:12.456Z,6.80
2019-02-10T20:24:50.982Z,6.80
2019-02-10T20:27:43.937Z,6.20
2019-02-10T20:30:31.153Z,7.10
2019-02-10T20:33:16.742Z,7.50
2019-02-10T20:36:16.042Z,7.70
2019-02-10T20:39:03.064Z,7.70
2019-02-10T20:41:40.134Z,7.80
2019-02-10T20:44:32.845Z,7.80
2019-02-10T20:50:03.629Z,7.90
2019-02-10T20:52:49.180Z,5.10
2019-02-10T20:55:39.176Z,7.80
2019-02-10T21:01:14.087Z,7.70
2019-02-10T21:04:07.133Z,7.70
2019-02-10T21:06:57.165Z,7.70
2019-02-10T21:09:42.983Z,7.60
2019-02-10T21:12:42.367Z,7.60
2019-02-10T21:15:35.400Z,7.70
2019-02-10T21:18:28.530Z,7.60
2019-02-10T21:21:05.265Z,7.60
2019-02-10T21:24:01.522Z,7.60
2019-02-10T21:26:48.549Z,7.60
2019-02-10T21:29:38.275Z,7.70
2019-02-10T21:32:34.292Z,7.80
2019-02-10T21:35:15.467Z,7.90
2019-02-10T21:38:11.713Z,7.80
2019-02-10T21:41:07.391Z,7.70
2019-02-10T21:43:51.071Z,7.70
2019-02-10T21:46:25.888Z,7.70
2019-02-10T21:49:03.305Z,7.70
2019-02-10T21:51:30.976Z,7.80
2019-02-10T21:53:58.597Z,7.80
2019-02-10T21:56:26.216Z,7.70
2019-02-10T21:58:53.794Z,7.60
2019-02-10T22:01:21.433Z,7.60
2019-02-10T22:03:49.081Z,7.60
2019-02-10T22:06:16.817Z,7.60
2019-02-10T22:08:44.505Z,7.70
2019-02-10T22:11:12.196Z,7.60
2019-02-10T22:13:40.051Z,7.50
2019-02-10T22:16:07.655Z,7.60
2019-02-10T22:18:35.172Z,7.40
2019-02-10T22:21:02.924Z,7.30
2019-02-10T22:23:30.606Z,7.30
2019-02-10T22:25:58.287Z,7.30
2019-02-10T22:28:25.823Z,7.40
2019-02-10T22:30:53.567Z,7.30
2019-02-10T22:33:21.217Z,7.30
2019-02-10T22:35:48.881Z,7.30
2019-02-10T22:38:16.477Z,7.30
2019-02-10T22:40:44.088Z,7.20
2019-02-10T22:43:11.675Z,7.20
2019-02-10T22:45:39.274Z,7.20
2019-02-10T22:48:06.879Z,7.30
2019-02-10T22:50:34.556Z,7.40
2019-02-10T22:53:02.212Z,7.40
2019-02-10T22:55:29.869Z,7.50
2019-02-10T22:57:57.498Z,7.60
2019-02-10T23:03:16.617Z,7.10
2019-02-10T23:05:44.683Z,6.90
2019-02-10T23:08:12.533Z,6.70
2019-02-10T23:10:40.218Z,6.70
2019-02-10T23:13:07.955Z,6.60
2019-02-10T23:15:35.822Z,6.50
2019-02-10T23:18:03.752Z,6.50
2019-02-10T23:20:31.812Z,6.50
2019-02-10T23:22:59.682Z,6.40
2019-02-10T23:25:27.361Z,6.50
2019-02-10T23:27:55.096Z,6.50
2019-02-10T23:30:22.928Z,6.40
2019-02-10T23:32:50.839Z,6.40
2019-02-10T23:35:18.762Z,6.30
2019-02-10T23:37:46.662Z,6.20
2019-02-10T23:40:14.775Z,6.10
2019-02-10T23:42:42.949Z,6.00
2019-02-10T23:45:10.568Z,5.80
2019-02-10T23:47:38.434Z,5.70
2019-02-10T23:50:08.479Z,5.90
2019-02-10T23:52:36.737Z,5.60
2019-02-10T23:55:08.187Z,5.50
2019-02-10T23:57:36.029Z,5.70
